Les articles d'ExpertMaritime.pro


Votre expert maritime indépendant Xavier Braive est disponible sur la zone de Meschers-sur-Gironde - Port de Meschers - 17132

(Charente-Maritime - Poitou-Charentes)


Voir plan
Situation :

Le Port de Meschers, situé sur la rive droite de la Gironde près de son embouchure, est abrité par tous temps.

Il comprend :

- Un avant-chenal de 250 m de long, large de 8 m qui fait un angle de 8° W avec le Nord vrai, creusé à la cote + 0,50 m ; le vieux havre d’échouage ou « chenal » équipé de quai, cales en 1861.

- Un bassin d’échouage créé 1985 de 121 places sur pontons flottants, creuse à la cote + 1 m.

- Un bassin à flot mis en service en 1990, de 121 places à l’origine, 116 aujourd’hui (on y a placé des bateaux plus grands que prévu), en arrière d’une porte-écluse, T.E. 2,50 m ; le seuil de l’écluse est à la cote + 2 m ; les portes ouvrent quand la mer atteint le niveau + 3,50 m, avec 1,50 m d’eau sur le seuil (les cotes se réfèrent au niveau 0 des cartes marines).
Lat. 45° 33?, 3 N – Long. 00° 56?, 6 W ; carte SHOM 7029.
Distances : LE VERDON : 3,5 M. – ROYAN : 5 M. – PAUILLAC : 23 M. – BORDEAUX : 48 M.

- Une zone de mouillage, ouverte d’Avril à Septembre, de 22 corps morts, sur les vases à l’est du chenal d’accès.

Pratique :

Ville de Meschers : Location des anneaux.
Capitainerie, Tél.: 05.46.02.56.89 – VHF canal 9 –
n° de Fax 05 46 02 34 77 - GSM 06 15 11 23 10
Monsieur KERDUDOU est le capitaine assermenté du port.

SAUVETAGE :
CROSS ETEL, Tél.: O2 .97.553.535.
De juin à septembre Poste de Secours – Plage des Nonnes,
Tél. : 05.46.02.72.92, situé à 1 mille au nord du Port.
Météo affichée à la Capitainerie.
Météo locale sur la zone Port de Meschers
Heure (UTC) Dir.Vent Vit.Vent (nds) Force (Bft) T°min T°max P (mb) Hum.Rel.
20/10/2021 - 12:00:00 au 20/10/2021 - 15:00:00 234° (SW) 13 4 18°C 19°C 1014 86 %
20/10/2021 - 15:00:00 au 20/10/2021 - 18:00:00 229° (SW) 16 4 18°C 19°C 1013 83 %
20/10/2021 - 18:00:00 au 20/10/2021 - 21:00:00 252° (WSW) 24 6 17°C 17°C 1013 76 %
20/10/2021 - 21:00:00 au 21/10/2021 - 00:00:00 259° (W) 28 7 16°C 16°C 1014 72 %
21/10/2021 - 00:00:00 au 21/10/2021 - 03:00:00 281° (W) 21 5 15°C 15°C 1016 73 %
21/10/2021 - 03:00:00 au 21/10/2021 - 06:00:00 289° (WNW) 16 4 15°C 15°C 1018 65 %
21/10/2021 - 06:00:00 au 21/10/2021 - 09:00:00 264° (W) 13 4 16°C 16°C 1019 61 %
21/10/2021 - 09:00:00 au 21/10/2021 - 12:00:00 263° (W) 16 4 16°C 16°C 1018 67 %
21/10/2021 - 12:00:00 au 21/10/2021 - 15:00:00 269° (W) 15 4 17°C 17°C 1017 65 %
21/10/2021 - 15:00:00 au 21/10/2021 - 18:00:00 278° (W) 14 4 15°C 15°C 1018 79 %
21/10/2021 - 18:00:00 au 21/10/2021 - 21:00:00 290° (WNW) 12 4 15°C 15°C 1018 79 %
21/10/2021 - 21:00:00 au 22/10/2021 - 00:00:00 008° (N) 13 4 11°C 11°C 1020 88 %
22/10/2021 - 00:00:00 au 22/10/2021 - 03:00:00 012° (NNE) 11 4 10°C 10°C 1021 88 %
22/10/2021 - 03:00:00 au 22/10/2021 - 06:00:00 018° (NNE) 10 3 8°C 8°C 1023 86 %
22/10/2021 - 06:00:00 au 22/10/2021 - 09:00:00 034° (NE) 11 4 10°C 10°C 1025 65 %
22/10/2021 - 09:00:00 au 22/10/2021 - 12:00:00 028° (NNE) 11 4 14°C 14°C 1026 43 %
22/10/2021 - 12:00:00 au 22/10/2021 - 15:00:00 015° (NNE) 10 3 15°C 15°C 1025 38 %
22/10/2021 - 15:00:00 au 22/10/2021 - 18:00:00 033° (NNE) 8 3 12°C 12°C 1026 46 %
22/10/2021 - 18:00:00 au 22/10/2021 - 21:00:00 045° (NE) 8 3 10°C 10°C 1027 52 %
22/10/2021 - 21:00:00 au 23/10/2021 - 00:00:00 056° (NE) 7 3 8°C 8°C 1027 61 %
23/10/2021 - 00:00:00 au 23/10/2021 - 03:00:00 074° (ENE) 7 3 7°C 7°C 1026 66 %
23/10/2021 - 03:00:00 au 23/10/2021 - 06:00:00 078° (ENE) 7 3 7°C 7°C 1026 72 %
23/10/2021 - 06:00:00 au 23/10/2021 - 09:00:00 078° (ENE) 9 3 11°C 11°C 1026 59 %
23/10/2021 - 09:00:00 au 23/10/2021 - 12:00:00 076° (ENE) 9 3 15°C 15°C 1024 43 %
23/10/2021 - 12:00:00 au 23/10/2021 - 15:00:00 069° (ENE) 8 3 16°C 16°C 1022 39 %
23/10/2021 - 15:00:00 au 23/10/2021 - 18:00:00 069° (ENE) 7 3 13°C 13°C 1022 51 %
23/10/2021 - 18:00:00 au 23/10/2021 - 21:00:00 101° (E) 7 3 10°C 10°C 1022 60 %
23/10/2021 - 21:00:00 au 24/10/2021 - 00:00:00 128° (SE) 5 2 9°C 9°C 1021 65 %
24/10/2021 - 00:00:00 au 24/10/2021 - 03:00:00 138° (SE) 6 2 9°C 9°C 1021 68 %
24/10/2021 - 03:00:00 au 24/10/2021 - 06:00:00 154° (SSE) 6 2 8°C 8°C 1021 71 %
24/10/2021 - 06:00:00 au 24/10/2021 - 09:00:00 155° (SSE) 7 3 12°C 12°C 1022 56 %
24/10/2021 - 09:00:00 au 24/10/2021 - 12:00:00 178° (S) 6 2 16°C 16°C 1021 38 %
24/10/2021 - 12:00:00 au 24/10/2021 - 15:00:00 234° (SW) 5 2 17°C 17°C 1021 41 %
24/10/2021 - 15:00:00 au 24/10/2021 - 18:00:00 241° (WSW) 5 2 13°C 13°C 1021 69 %
24/10/2021 - 18:00:00 au 24/10/2021 - 21:00:00 201° (SSW) 6 2 14°C 14°C 1021 86 %
24/10/2021 - 21:00:00 au 25/10/2021 - 00:00:00 203° (SSW) 7 3 14°C 14°C 1021 92 %
25/10/2021 - 00:00:00 au 25/10/2021 - 03:00:00 204° (SSW) 6 2 14°C 14°C 1021 92 %
25/10/2021 - 03:00:00 au 25/10/2021 - 06:00:00 260° (W) 3 1 14°C 14°C 1020 90 %
25/10/2021 - 06:00:00 au 25/10/2021 - 09:00:00 307° (NW) 4 2 16°C 16°C 1021 79 %
25/10/2021 - 09:00:00 au 25/10/2021 - 12:00:00 287° (WNW) 7 3 18°C 18°C 1021 65 %
openweathermap
Ces informations sont partiellement extraites de Wikipedia, et des sites pertinents pour cette zone. Compilation d'informations de Xavier Braive.
Xavier Braive, Expert Maritime Plaisance se déplace sur Port de Meschers, Meschers-sur-Gironde, 17132, Charente-Maritime

Welcome to Cross-Channel yachtmen !

we can deliver survey reports in english, in case of dammage or prior to buy / sell a boat in France (pre-purchase survey), and more specifically on the Atlantic coast.

Uw onafhankelijk jachtexpert

verkrijkbaar op de Atlantische kust, bij aankoop of reparatie van jachten (metaal, polyester of composiet). Rapporten in Nederlands

BRAIVE, Xavier
Xavier Braive
Expert Maritime
Nouvelle Aquitaine
France
06 71 50 20 17